sensor_id;sensor_type;location;lat;lon;timestamp;P1;durP1;ratioP1;P2;durP2;ratioP2
26540;SDS011;14206;50.202;10.948;2023-12-20T00:02:14;7.63;;;5.97;;
26540;SDS011;14206;50.202;10.948;2023-12-20T00:04:41;7.05;;;5.97;;
26540;SDS011;14206;50.202;10.948;2023-12-20T00:07:08;5.38;;;4.65;;
26540;SDS011;14206;50.202;10.948;2023-12-20T00:09:35;7.15;;;5.78;;
26540;SDS011;14206;50.202;10.948;2023-12-20T00:12:02;8.43;;;6.88;;
26540;SDS011;14206;50.202;10.948;2023-12-20T00:14:29;6.57;;;5.60;;
26540;SDS011;14206;50.202;10.948;2023-12-20T00:16:56;8.30;;;6.47;;
26540;SDS011;14206;50.202;10.948;2023-12-20T00:19:23;9.05;;;7.38;;
26540;SDS011;14206;50.202;10.948;2023-12-20T00:21:50;7.90;;;6.25;;
26540;SDS011;14206;50.202;10.948;2023-12-20T00:24:17;8.35;;;6.55;;
26540;SDS011;14206;50.202;10.948;2023-12-20T00:26:44;7.55;;;6.25;;
26540;SDS011;14206;50.202;10.948;2023-12-20T00:29:11;6.85;;;5.93;;
26540;SDS011;14206;50.202;10.948;2023-12-20T00:31:38;7.97;;;6.07;;
26540;SDS011;14206;50.202;10.948;2023-12-20T00:34:05;8.68;;;6.65;;
26540;SDS011;14206;50.202;10.948;2023-12-20T00:36:37;7.63;;;6.35;;
26540;SDS011;14206;50.202;10.948;2023-12-20T00:39:04;7.95;;;6.57;;
26540;SDS011;14206;50.202;10.948;2023-12-20T00:41:31;7.10;;;6.15;;
26540;SDS011;14206;50.202;10.948;2023-12-20T00:43:58;7.18;;;5.68;;
26540;SDS011;14206;50.202;10.948;2023-12-20T00:46:24;6.88;;;5.63;;
26540;SDS011;14206;50.202;10.948;2023-12-20T00:48:51;7.55;;;5.63;;
26540;SDS011;14206;50.202;10.948;2023-12-20T00:51:18;5.95;;;5.32;;
26540;SDS011;14206;50.202;10.948;2023-12-20T00:53:45;5.65;;;4.95;;
26540;SDS011;14206;50.202;10.948;2023-12-20T00:56:15;5.50;;;4.57;;
26540;SDS011;14206;50.202;10.948;2023-12-20T00:58:42;5.90;;;4.55;;
26540;SDS011;14206;50.202;10.948;2023-12-20T01:01:09;5.57;;;4.70;;
26540;SDS011;14206;50.202;10.948;2023-12-20T01:03:36;5.13;;;4.25;;
26540;SDS011;14206;50.202;10.948;2023-12-20T01:06:04;5.20;;;4.40;;
26540;SDS011;14206;50.202;10.948;2023-12-20T01:08:31;4.90;;;4.40;;
26540;SDS011;14206;50.202;10.948;2023-12-20T01:10:58;5.15;;;4.00;;
26540;SDS011;14206;50.202;10.948;2023-12-20T01:13:25;4.70;;;3.88;;
26540;SDS011;14206;50.202;10.948;2023-12-20T01:15:52;4.07;;;3.60;;
26540;SDS011;14206;50.202;10.948;2023-12-20T01:18:19;4.80;;;3.85;;
26540;SDS011;14206;50.202;10.948;2023-12-20T01:20:45;3.92;;;3.47;;
26540;SDS011;14206;50.202;10.948;2023-12-20T01:23:12;4.00;;;3.60;;
26540;SDS011;14206;50.202;10.948;2023-12-20T01:25:39;4.90;;;4.13;;
26540;SDS011;14206;50.202;10.948;2023-12-20T01:28:06;4.50;;;3.60;;
26540;SDS011;14206;50.202;10.948;2023-12-20T01:30:33;3.90;;;3.50;;
26540;SDS011;14206;50.202;10.948;2023-12-20T01:33:00;3.55;;;3.25;;
26540;SDS011;14206;50.202;10.948;2023-12-20T01:35:27;4.65;;;3.40;;
26540;SDS011;14206;50.202;10.948;2023-12-20T01:37:54;3.47;;;3.17;;
26540;SDS011;14206;50.202;10.948;2023-12-20T01:40:38;3.20;;;2.90;;
26540;SDS011;14206;50.202;10.948;2023-12-20T01:43:07;3.15;;;2.75;;
26540;SDS011;14206;50.202;10.948;2023-12-20T01:45:35;3.10;;;2.80;;
26540;SDS011;14206;50.202;10.948;2023-12-20T01:48:04;2.88;;;2.45;;
26540;SDS011;14206;50.202;10.948;2023-12-20T01:50:32;3.45;;;2.63;;
26540;SDS011;14206;50.202;10.948;2023-12-20T01:53:02;2.50;;;2.20;;
26540;SDS011;14206;50.202;10.948;2023-12-20T01:55:31;2.55;;;2.35;;
26540;SDS011;14206;50.202;10.948;2023-12-20T01:58:01;2.42;;;2.20;;
26540;SDS011;14206;50.202;10.948;2023-12-20T02:00:28;2.30;;;2.10;;
26540;SDS011;14206;50.202;10.948;2023-12-20T02:02:56;2.25;;;2.05;;
26540;SDS011;14206;50.202;10.948;2023-12-20T02:05:29;2.15;;;1.95;;
26540;SDS011;14206;50.202;10.948;2023-12-20T02:07:56;1.95;;;1.75;;
26540;SDS011;14206;50.202;10.948;2023-12-20T02:10:24;2.10;;;1.90;;
26540;SDS011;14206;50.202;10.948;2023-12-20T02:12:51;2.55;;;2.25;;
26540;SDS011;14206;50.202;10.948;2023-12-20T02:15:18;1.98;;;1.77;;
26540;SDS011;14206;50.202;10.948;2023-12-20T02:17:45;2.00;;;1.80;;
26540;SDS011;14206;50.202;10.948;2023-12-20T02:20:15;1.95;;;1.70;;
26540;SDS011;14206;50.202;10.948;2023-12-20T02:22:42;2.00;;;1.80;;
26540;SDS011;14206;50.202;10.948;2023-12-20T02:25:09;1.60;;;1.50;;
26540;SDS011;14206;50.202;10.948;2023-12-20T02:27:35;1.40;;;1.30;;
26540;SDS011;14206;50.202;10.948;2023-12-20T02:30:03;2.10;;;1.80;;
26540;SDS011;14206;50.202;10.948;2023-12-20T02:32:30;1.80;;;1.60;;
26540;SDS011;14206;50.202;10.948;2023-12-20T02:34:57;2.00;;;1.60;;
26540;SDS011;14206;50.202;10.948;2023-12-20T02:37:24;2.38;;;1.58;;
26540;SDS011;14206;50.202;10.948;2023-12-20T02:39:51;1.98;;;1.77;;
26540;SDS011;14206;50.202;10.948;2023-12-20T02:42:18;1.60;;;1.50;;
26540;SDS011;14206;50.202;10.948;2023-12-20T02:44:45;1.73;;;1.52;;
26540;SDS011;14206;50.202;10.948;2023-12-20T02:47:12;1.73;;;1.58;;
26540;SDS011;14206;50.202;10.948;2023-12-20T02:49:39;2.40;;;1.50;;
26540;SDS011;14206;50.202;10.948;2023-12-20T02:52:06;1.52;;;1.35;;
26540;SDS011;14206;50.202;10.948;2023-12-20T02:54:33;1.30;;;1.20;;
26540;SDS011;14206;50.202;10.948;2023-12-20T02:57:00;1.70;;;1.40;;
26540;SDS011;14206;50.202;10.948;2023-12-20T02:59:26;1.33;;;1.10;;
26540;SDS011;14206;50.202;10.948;2023-12-20T03:01:53;1.40;;;1.30;;
26540;SDS011;14206;50.202;10.948;2023-12-20T03:04:20;1.45;;;1.15;;
26540;SDS011;14206;50.202;10.948;2023-12-20T03:06:47;1.48;;;1.38;;
26540;SDS011;14206;50.202;10.948;2023-12-20T03:09:14;1.42;;;1.15;;
26540;SDS011;14206;50.202;10.948;2023-12-20T03:11:41;1.40;;;1.23;;
26540;SDS011;14206;50.202;10.948;2023-12-20T03:14:08;1.13;;;1.02;;
26540;SDS011;14206;50.202;10.948;2023-12-20T03:16:35;1.40;;;1.30;;
26540;SDS011;14206;50.202;10.948;2023-12-20T03:19:02;0.80;;;0.80;;
26540;SDS011;14206;50.202;10.948;2023-12-20T03:21:29;0.95;;;0.95;;
26540;SDS011;14206;50.202;10.948;2023-12-20T03:23:56;0.80;;;0.80;;
26540;SDS011;14206;50.202;10.948;2023-12-20T03:26:23;1.08;;;0.98;;
26540;SDS011;14206;50.202;10.948;2023-12-20T03:28:49;0.90;;;0.90;;
26540;SDS011;14206;50.202;10.948;2023-12-20T03:31:16;1.95;;;1.13;;
26540;SDS011;14206;50.202;10.948;2023-12-20T03:33:43;0.80;;;0.80;;
26540;SDS011;14206;50.202;10.948;2023-12-20T03:36:10;1.20;;;0.82;;
26540;SDS011;14206;50.202;10.948;2023-12-20T03:38:37;0.80;;;0.80;;
26540;SDS011;14206;50.202;10.948;2023-12-20T03:41:04;0.75;;;0.75;;
26540;SDS011;14206;50.202;10.948;2023-12-20T03:43:31;0.80;;;0.80;;
26540;SDS011;14206;50.202;10.948;2023-12-20T03:45:58;0.80;;;0.80;;
26540;SDS011;14206;50.202;10.948;2023-12-20T03:48:26;0.68;;;0.68;;
26540;SDS011;14206;50.202;10.948;2023-12-20T03:50:53;0.80;;;0.70;;
26540;SDS011;14206;50.202;10.948;2023-12-20T03:53:19;0.80;;;0.80;;
26540;SDS011;14206;50.202;10.948;2023-12-20T03:55:46;1.08;;;0.88;;
26540;SDS011;14206;50.202;10.948;2023-12-20T03:58:13;0.87;;;0.87;;
26540;SDS011;14206;50.202;10.948;2023-12-20T04:00:40;0.65;;;0.65;;
26540;SDS011;14206;50.202;10.948;2023-12-20T04:03:07;0.60;;;0.60;;
26540;SDS011;14206;50.202;10.948;2023-12-20T04:05:34;0.60;;;0.60;;
26540;SDS011;14206;50.202;10.948;2023-12-20T04:08:01;0.52;;;0.52;;
26540;SDS011;14206;50.202;10.948;2023-12-20T04:10:28;0.80;;;0.60;;
26540;SDS011;14206;50.202;10.948;2023-12-20T04:12:55;0.70;;;0.70;;
26540;SDS011;14206;50.202;10.948;2023-12-20T04:15:22;0.70;;;0.70;;
26540;SDS011;14206;50.202;10.948;2023-12-20T04:17:49;0.82;;;0.82;;
26540;SDS011;14206;50.202;10.948;2023-12-20T04:20:16;0.60;;;0.60;;
26540;SDS011;14206;50.202;10.948;2023-12-20T04:22:43;0.70;;;0.70;;
26540;SDS011;14206;50.202;10.948;2023-12-20T04:25:10;0.65;;;0.60;;
26540;SDS011;14206;50.202;10.948;2023-12-20T04:27:37;0.60;;;0.60;;
26540;SDS011;14206;50.202;10.948;2023-12-20T04:30:04;0.57;;;0.50;;
26540;SDS011;14206;50.202;10.948;2023-12-20T04:32:32;0.80;;;0.70;;
26540;SDS011;14206;50.202;10.948;2023-12-20T04:34:59;0.80;;;0.80;;
26540;SDS011;14206;50.202;10.948;2023-12-20T04:37:26;0.80;;;0.80;;
26540;SDS011;14206;50.202;10.948;2023-12-20T04:39:52;0.70;;;0.70;;
26540;SDS011;14206;50.202;10.948;2023-12-20T04:42:19;0.85;;;0.80;;
26540;SDS011;14206;50.202;10.948;2023-12-20T04:44:46;4.90;;;1.00;;
26540;SDS011;14206;50.202;10.948;2023-12-20T04:47:13;0.90;;;0.90;;
26540;SDS011;14206;50.202;10.948;2023-12-20T04:49:40;0.98;;;0.98;;
26540;SDS011;14206;50.202;10.948;2023-12-20T04:52:07;0.90;;;0.90;;
26540;SDS011;14206;50.202;10.948;2023-12-20T04:54:34;1.00;;;1.00;;
26540;SDS011;14206;50.202;10.948;2023-12-20T04:57:01;1.20;;;1.10;;
26540;SDS011;14206;50.202;10.948;2023-12-20T04:59:27;1.20;;;1.10;;
26540;SDS011;14206;50.202;10.948;2023-12-20T05:01:55;1.00;;;1.00;;
26540;SDS011;14206;50.202;10.948;2023-12-20T05:04:22;1.00;;;1.00;;
26540;SDS011;14206;50.202;10.948;2023-12-20T05:06:49;1.05;;;1.05;;
26540;SDS011;14206;50.202;10.948;2023-12-20T05:09:16;1.67;;;1.30;;
26540;SDS011;14206;50.202;10.948;2023-12-20T05:11:44;1.52;;;1.42;;
26540;SDS011;14206;50.202;10.948;2023-12-20T05:14:10;1.55;;;1.45;;
26540;SDS011;14206;50.202;10.948;2023-12-20T05:16:37;1.42;;;1.30;;
26540;SDS011;14206;50.202;10.948;2023-12-20T05:19:05;1.67;;;1.50;;
26540;SDS011;14206;50.202;10.948;2023-12-20T05:21:33;1.60;;;1.50;;
26540;SDS011;14206;50.202;10.948;2023-12-20T05:24:00;1.30;;;1.20;;
26540;SDS011;14206;50.202;10.948;2023-12-20T05:26:27;1.50;;;1.40;;
26540;SDS011;14206;50.202;10.948;2023-12-20T05:28:55;1.60;;;1.50;;
26540;SDS011;14206;50.202;10.948;2023-12-20T05:31:22;1.50;;;1.40;;
26540;SDS011;14206;50.202;10.948;2023-12-20T05:33:49;1.63;;;1.50;;
26540;SDS011;14206;50.202;10.948;2023-12-20T05:36:16;1.50;;;1.30;;
26540;SDS011;14206;50.202;10.948;2023-12-20T05:41:42;1.48;;;1.38;;
26540;SDS011;14206;50.202;10.948;2023-12-20T05:44:09;1.60;;;1.50;;
26540;SDS011;14206;50.202;10.948;2023-12-20T05:46:36;2.60;;;1.52;;
26540;SDS011;14206;50.202;10.948;2023-12-20T05:49:03;1.40;;;1.30;;
26540;SDS011;14206;50.202;10.948;2023-12-20T05:51:31;1.67;;;1.58;;
26540;SDS011;14206;50.202;10.948;2023-12-20T05:53:58;1.70;;;1.60;;
26540;SDS011;14206;50.202;10.948;2023-12-20T05:56:25;1.52;;;1.42;;
26540;SDS011;14206;50.202;10.948;2023-12-20T05:58:52;1.70;;;1.60;;
26540;SDS011;14206;50.202;10.948;2023-12-20T06:01:19;1.50;;;1.40;;
26540;SDS011;14206;50.202;10.948;2023-12-20T06:03:46;1.58;;;1.48;;
26540;SDS011;14206;50.202;10.948;2023-12-20T06:06:13;1.30;;;1.20;;
26540;SDS011;14206;50.202;10.948;2023-12-20T06:08:43;1.50;;;1.40;;
26540;SDS011;14206;50.202;10.948;2023-12-20T06:11:10;1.50;;;1.40;;
26540;SDS011;14206;50.202;10.948;2023-12-20T06:13:37;1.60;;;1.50;;
26540;SDS011;14206;50.202;10.948;2023-12-20T06:16:05;1.33;;;1.23;;
26540;SDS011;14206;50.202;10.948;2023-12-20T06:18:33;1.52;;;1.23;;
26540;SDS011;14206;50.202;10.948;2023-12-20T06:21:00;1.50;;;1.40;;
26540;SDS011;14206;50.202;10.948;2023-12-20T06:23:28;1.50;;;1.40;;
26540;SDS011;14206;50.202;10.948;2023-12-20T06:25:55;1.95;;;1.40;;
26540;SDS011;14206;50.202;10.948;2023-12-20T06:28:22;1.85;;;1.50;;
26540;SDS011;14206;50.202;10.948;2023-12-20T06:30:49;2.22;;;1.75;;
26540;SDS011;14206;50.202;10.948;2023-12-20T06:33:18;1.75;;;1.65;;
26540;SDS011;14206;50.202;10.948;2023-12-20T06:35:46;1.70;;;1.60;;
26540;SDS011;14206;50.202;10.948;2023-12-20T06:38:13;1.70;;;1.60;;
26540;SDS011;14206;50.202;10.948;2023-12-20T06:40:39;1.67;;;1.58;;
26540;SDS011;14206;50.202;10.948;2023-12-20T06:43:06;1.73;;;1.63;;
26540;SDS011;14206;50.202;10.948;2023-12-20T06:45:46;2.00;;;1.80;;
26540;SDS011;14206;50.202;10.948;2023-12-20T06:48:13;2.63;;;2.15;;
26540;SDS011;14206;50.202;10.948;2023-12-20T06:50:40;1.90;;;1.77;;
26540;SDS011;14206;50.202;10.948;2023-12-20T06:53:07;2.20;;;2.00;;
26540;SDS011;14206;50.202;10.948;2023-12-20T06:55:37;2.28;;;2.08;;
26540;SDS011;14206;50.202;10.948;2023-12-20T06:58:04;2.30;;;2.00;;
26540;SDS011;14206;50.202;10.948;2023-12-20T07:00:32;2.42;;;2.22;;
26540;SDS011;14206;50.202;10.948;2023-12-20T07:02:59;2.10;;;1.90;;
26540;SDS011;14206;50.202;10.948;2023-12-20T07:05:26;2.13;;;1.95;;
26540;SDS011;14206;50.202;10.948;2023-12-20T07:07:53;2.50;;;2.13;;
26540;SDS011;14206;50.202;10.948;2023-12-20T07:10:20;2.22;;;2.03;;
26540;SDS011;14206;50.202;10.948;2023-12-20T07:12:47;3.22;;;2.67;;
26540;SDS011;14206;50.202;10.948;2023-12-20T07:15:15;2.40;;;2.20;;
26540;SDS011;14206;50.202;10.948;2023-12-20T07:17:42;2.65;;;2.40;;
26540;SDS011;14206;50.202;10.948;2023-12-20T07:20:10;2.80;;;2.60;;
26540;SDS011;14206;50.202;10.948;2023-12-20T07:22:37;2.53;;;2.20;;
26540;SDS011;14206;50.202;10.948;2023-12-20T07:25:06;2.30;;;2.10;;
26540;SDS011;14206;50.202;10.948;2023-12-20T07:27:33;2.55;;;2.30;;
26540;SDS011;14206;50.202;10.948;2023-12-20T07:30:03;2.53;;;2.33;;
26540;SDS011;14206;50.202;10.948;2023-12-20T07:32:31;3.22;;;2.38;;
26540;SDS011;14206;50.202;10.948;2023-12-20T07:34:58;3.30;;;2.60;;
26540;SDS011;14206;50.202;10.948;2023-12-20T07:37:26;2.40;;;2.17;;
26540;SDS011;14206;50.202;10.948;2023-12-20T07:39:52;3.60;;;2.92;;
26540;SDS011;14206;50.202;10.948;2023-12-20T07:42:19;2.92;;;2.60;;
26540;SDS011;14206;50.202;10.948;2023-12-20T07:44:48;2.83;;;2.60;;
26540;SDS011;14206;50.202;10.948;2023-12-20T07:47:15;3.10;;;2.80;;
26540;SDS011;14206;50.202;10.948;2023-12-20T07:49:45;3.88;;;3.00;;
26540;SDS011;14206;50.202;10.948;2023-12-20T07:52:12;3.15;;;2.80;;
26540;SDS011;14206;50.202;10.948;2023-12-20T07:54:39;3.10;;;2.70;;
26540;SDS011;14206;50.202;10.948;2023-12-20T07:57:06;3.38;;;3.08;;
26540;SDS011;14206;50.202;10.948;2023-12-20T07:59:33;3.50;;;3.20;;
26540;SDS011;14206;50.202;10.948;2023-12-20T08:02:00;3.40;;;3.10;;
26540;SDS011;14206;50.202;10.948;2023-12-20T08:04:27;5.07;;;2.95;;
26540;SDS011;14206;50.202;10.948;2023-12-20T08:06:54;2.90;;;2.60;;
26540;SDS011;14206;50.202;10.948;2023-12-20T08:09:21;3.17;;;2.53;;
26540;SDS011;14206;50.202;10.948;2023-12-20T08:11:48;3.22;;;2.75;;
26540;SDS011;14206;50.202;10.948;2023-12-20T08:14:15;3.72;;;2.60;;
26540;SDS011;14206;50.202;10.948;2023-12-20T08:16:42;2.83;;;2.60;;
26540;SDS011;14206;50.202;10.948;2023-12-20T08:19:09;3.65;;;2.85;;
26540;SDS011;14206;50.202;10.948;2023-12-20T08:21:36;3.17;;;2.60;;
26540;SDS011;14206;50.202;10.948;2023-12-20T08:24:04;3.72;;;2.83;;
26540;SDS011;14206;50.202;10.948;2023-12-20T08:26:32;3.47;;;2.92;;
26540;SDS011;14206;50.202;10.948;2023-12-20T08:28:59;4.20;;;2.80;;
26540;SDS011;14206;50.202;10.948;2023-12-20T08:31:28;2.78;;;2.28;;
26540;SDS011;14206;50.202;10.948;2023-12-20T08:33:55;4.20;;;2.67;;
26540;SDS011;14206;50.202;10.948;2023-12-20T08:36:23;3.38;;;2.60;;
26540;SDS011;14206;50.202;10.948;2023-12-20T08:38:50;2.80;;;2.50;;
26540;SDS011;14206;50.202;10.948;2023-12-20T08:41:17;3.22;;;2.67;;
26540;SDS011;14206;50.202;10.948;2023-12-20T08:43:44;3.85;;;2.90;;
26540;SDS011;14206;50.202;10.948;2023-12-20T08:46:11;3.50;;;2.65;;
26540;SDS011;14206;50.202;10.948;2023-12-20T08:48:39;3.33;;;2.40;;
26540;SDS011;14206;50.202;10.948;2023-12-20T08:51:06;3.00;;;2.58;;
26540;SDS011;14206;50.202;10.948;2023-12-20T08:53:35;3.33;;;2.80;;
26540;SDS011;14206;50.202;10.948;2023-12-20T08:56:02;2.58;;;2.38;;
26540;SDS011;14206;50.202;10.948;2023-12-20T08:58:29;3.53;;;2.75;;
26540;SDS011;14206;50.202;10.948;2023-12-20T09:00:56;3.55;;;2.80;;
26540;SDS011;14206;50.202;10.948;2023-12-20T09:03:24;3.05;;;2.70;;
26540;SDS011;14206;50.202;10.948;2023-12-20T09:05:51;3.47;;;2.65;;
26540;SDS011;14206;50.202;10.948;2023-12-20T09:08:18;4.10;;;2.80;;
26540;SDS011;14206;50.202;10.948;2023-12-20T09:10:45;3.80;;;2.85;;
26540;SDS011;14206;50.202;10.948;2023-12-20T09:13:12;1.95;;;1.85;;
26540;SDS011;14206;50.202;10.948;2023-12-20T09:15:39;3.10;;;2.55;;
26540;SDS011;14206;50.202;10.948;2023-12-20T09:18:06;3.47;;;2.47;;
26540;SDS011;14206;50.202;10.948;2023-12-20T09:20:34;3.20;;;2.30;;
26540;SDS011;14206;50.202;10.948;2023-12-20T09:23:01;3.60;;;2.28;;
26540;SDS011;14206;50.202;10.948;2023-12-20T09:25:29;3.17;;;2.72;;
26540;SDS011;14206;50.202;10.948;2023-12-20T09:27:57;5.05;;;2.20;;
26540;SDS011;14206;50.202;10.948;2023-12-20T09:30:24;2.75;;;2.03;;
26540;SDS011;14206;50.202;10.948;2023-12-20T09:32:54;4.57;;;2.38;;
26540;SDS011;14206;50.202;10.948;2023-12-20T09:35:21;5.68;;;2.63;;
26540;SDS011;14206;50.202;10.948;2023-12-20T09:37:49;5.20;;;1.95;;
26540;SDS011;14206;50.202;10.948;2023-12-20T09:40:18;5.93;;;2.00;;
26540;SDS011;14206;50.202;10.948;2023-12-20T09:45:45;3.90;;;1.70;;
26540;SDS011;14206;50.202;10.948;2023-12-20T09:48:13;3.90;;;2.20;;
26540;SDS011;14206;50.202;10.948;2023-12-20T09:50:44;4.25;;;2.00;;
26540;SDS011;14206;50.202;10.948;2023-12-20T09:53:18;4.18;;;1.85;;
26540;SDS011;14206;50.202;10.948;2023-12-20T09:55:46;3.60;;;1.80;;
26540;SDS011;14206;50.202;10.948;2023-12-20T09:58:13;4.25;;;2.03;;
26540;SDS011;14206;50.202;10.948;2023-12-20T10:00:40;5.18;;;1.75;;
26540;SDS011;14206;50.202;10.948;2023-12-20T10:03:10;2.78;;;1.75;;
26540;SDS011;14206;50.202;10.948;2023-12-20T10:05:42;4.80;;;1.75;;
26540;SDS011;14206;50.202;10.948;2023-12-20T10:08:11;3.53;;;1.60;;
26540;SDS011;14206;50.202;10.948;2023-12-20T10:10:38;4.30;;;1.60;;
26540;SDS011;14206;50.202;10.948;2023-12-20T10:13:13;3.63;;;1.75;;
26540;SDS011;14206;50.202;10.948;2023-12-20T10:15:41;4.10;;;1.90;;
26540;SDS011;14206;50.202;10.948;2023-12-20T10:18:09;3.50;;;1.70;;
26540;SDS011;14206;50.202;10.948;2023-12-20T10:20:39;3.10;;;1.85;;
26540;SDS011;14206;50.202;10.948;2023-12-20T10:23:07;3.95;;;1.52;;
26540;SDS011;14206;50.202;10.948;2023-12-20T10:25:34;2.45;;;1.60;;
26540;SDS011;14206;50.202;10.948;2023-12-20T10:28:08;3.40;;;1.65;;
26540;SDS011;14206;50.202;10.948;2023-12-20T10:30:37;5.90;;;1.80;;
26540;SDS011;14206;50.202;10.948;2023-12-20T10:33:08;5.15;;;1.90;;
26540;SDS011;14206;50.202;10.948;2023-12-20T10:35:37;4.47;;;1.70;;
26540;SDS011;14206;50.202;10.948;2023-12-20T10:38:09;4.65;;;1.80;;
26540;SDS011;14206;50.202;10.948;2023-12-20T10:40:38;4.80;;;1.63;;
26540;SDS011;14206;50.202;10.948;2023-12-20T10:43:06;4.88;;;1.60;;
26540;SDS011;14206;50.202;10.948;2023-12-20T10:45:35;4.97;;;1.63;;
26540;SDS011;14206;50.202;10.948;2023-12-20T10:48:02;3.45;;;1.70;;
26540;SDS011;14206;50.202;10.948;2023-12-20T10:50:30;5.25;;;1.60;;
26540;SDS011;14206;50.202;10.948;2023-12-20T10:52:58;4.70;;;1.80;;
26540;SDS011;14206;50.202;10.948;2023-12-20T10:55:26;3.30;;;1.50;;
26540;SDS011;14206;50.202;10.948;2023-12-20T10:57:56;5.05;;;1.60;;
26540;SDS011;14206;50.202;10.948;2023-12-20T11:00:28;3.65;;;1.33;;
26540;SDS011;14206;50.202;10.948;2023-12-20T11:03:00;4.00;;;1.50;;
26540;SDS011;14206;50.202;10.948;2023-12-20T11:05:33;2.78;;;1.50;;
26540;SDS011;14206;50.202;10.948;2023-12-20T11:13:34;4.97;;;1.55;;
26540;SDS011;14206;50.202;10.948;2023-12-20T11:16:04;3.08;;;1.50;;
26540;SDS011;14206;50.202;10.948;2023-12-20T11:18:31;5.50;;;1.85;;
26540;SDS011;14206;50.202;10.948;2023-12-20T11:21:04;4.15;;;1.67;;
26540;SDS011;14206;50.202;10.948;2023-12-20T11:23:32;3.20;;;1.35;;
26540;SDS011;14206;50.202;10.948;2023-12-20T11:26:01;3.05;;;1.50;;
26540;SDS011;14206;50.202;10.948;2023-12-20T11:28:29;3.85;;;1.42;;
26540;SDS011;14206;50.202;10.948;2023-12-20T11:30:57;3.03;;;1.60;;
26540;SDS011;14206;50.202;10.948;2023-12-20T11:33:30;4.13;;;1.40;;
26540;SDS011;14206;50.202;10.948;2023-12-20T11:36:14;3.30;;;1.50;;
26540;SDS011;14206;50.202;10.948;2023-12-20T11:38:54;5.22;;;2.00;;
26540;SDS011;14206;50.202;10.948;2023-12-20T11:41:26;3.88;;;1.60;;
26540;SDS011;14206;50.202;10.948;2023-12-20T11:43:53;3.65;;;1.50;;
26540;SDS011;14206;50.202;10.948;2023-12-20T11:46:22;4.75;;;1.60;;
26540;SDS011;14206;50.202;10.948;2023-12-20T11:48:49;7.93;;;1.80;;
26540;SDS011;14206;50.202;10.948;2023-12-20T11:51:16;4.13;;;1.63;;
26540;SDS011;14206;50.202;10.948;2023-12-20T11:53:43;3.97;;;1.55;;
26540;SDS011;14206;50.202;10.948;2023-12-20T11:56:10;4.70;;;1.83;;
26540;SDS011;14206;50.202;10.948;2023-12-20T11:58:38;4.35;;;1.70;;
26540;SDS011;14206;50.202;10.948;2023-12-20T12:01:05;4.78;;;1.55;;
26540;SDS011;14206;50.202;10.948;2023-12-20T12:03:35;3.53;;;1.52;;
26540;SDS011;14206;50.202;10.948;2023-12-20T12:06:02;5.13;;;1.75;;
26540;SDS011;14206;50.202;10.948;2023-12-20T12:08:31;2.95;;;1.45;;
26540;SDS011;14206;50.202;10.948;2023-12-20T12:10:58;2.35;;;1.40;;
26540;SDS011;14206;50.202;10.948;2023-12-20T12:13:25;4.28;;;2.03;;
26540;SDS011;14206;50.202;10.948;2023-12-20T12:15:54;4.85;;;1.75;;
26540;SDS011;14206;50.202;10.948;2023-12-20T12:18:21;3.63;;;1.40;;
26540;SDS011;14206;50.202;10.948;2023-12-20T12:20:48;3.63;;;1.80;;
26540;SDS011;14206;50.202;10.948;2023-12-20T12:23:22;4.38;;;1.60;;
26540;SDS011;14206;50.202;10.948;2023-12-20T12:25:52;5.35;;;1.50;;
26540;SDS011;14206;50.202;10.948;2023-12-20T12:28:21;5.32;;;1.75;;
26540;SDS011;14206;50.202;10.948;2023-12-20T12:30:58;4.30;;;1.60;;
26540;SDS011;14206;50.202;10.948;2023-12-20T12:33:25;3.92;;;1.42;;
26540;SDS011;14206;50.202;10.948;2023-12-20T12:35:53;4.25;;;1.60;;
26540;SDS011;14206;50.202;10.948;2023-12-20T12:38:21;3.78;;;1.65;;
26540;SDS011;14206;50.202;10.948;2023-12-20T12:40:53;4.97;;;1.38;;
26540;SDS011;14206;50.202;10.948;2023-12-20T12:43:20;2.88;;;1.48;;
26540;SDS011;14206;50.202;10.948;2023-12-20T12:45:49;5.03;;;1.40;;
26540;SDS011;14206;50.202;10.948;2023-12-20T12:48:16;5.18;;;1.67;;
26540;SDS011;14206;50.202;10.948;2023-12-20T12:50:43;3.90;;;1.40;;
26540;SDS011;14206;50.202;10.948;2023-12-20T12:53:11;5.18;;;1.60;;
26540;SDS011;14206;50.202;10.948;2023-12-20T12:55:38;5.63;;;1.50;;
26540;SDS011;14206;50.202;10.948;2023-12-20T12:58:05;2.83;;;1.30;;
26540;SDS011;14206;50.202;10.948;2023-12-20T13:00:32;4.30;;;1.13;;
26540;SDS011;14206;50.202;10.948;2023-12-20T13:02:59;4.10;;;1.65;;
26540;SDS011;14206;50.202;10.948;2023-12-20T13:05:27;3.65;;;1.33;;
26540;SDS011;14206;50.202;10.948;2023-12-20T13:07:56;5.45;;;1.75;;
26540;SDS011;14206;50.202;10.948;2023-12-20T13:10:24;2.92;;;1.50;;
26540;SDS011;14206;50.202;10.948;2023-12-20T13:12:52;2.22;;;1.00;;
26540;SDS011;14206;50.202;10.948;2023-12-20T13:15:20;5.07;;;1.55;;
26540;SDS011;14206;50.202;10.948;2023-12-20T13:17:48;4.18;;;1.50;;
26540;SDS011;14206;50.202;10.948;2023-12-20T13:20:17;5.10;;;1.80;;
26540;SDS011;14206;50.202;10.948;2023-12-20T13:22:47;4.68;;;1.95;;
26540;SDS011;14206;50.202;10.948;2023-12-20T13:25:20;6.03;;;1.50;;
26540;SDS011;14206;50.202;10.948;2023-12-20T13:27:48;4.72;;;1.40;;
26540;SDS011;14206;50.202;10.948;2023-12-20T13:30:16;4.57;;;1.92;;
26540;SDS011;14206;50.202;10.948;2023-12-20T13:32:44;5.18;;;1.48;;
26540;SDS011;14206;50.202;10.948;2023-12-20T13:35:11;4.18;;;1.67;;
26540;SDS011;14206;50.202;10.948;2023-12-20T13:37:38;4.50;;;2.10;;
26540;SDS011;14206;50.202;10.948;2023-12-20T13:40:06;4.13;;;1.48;;
26540;SDS011;14206;50.202;10.948;2023-12-20T13:42:34;6.57;;;1.75;;
26540;SDS011;14206;50.202;10.948;2023-12-20T13:45:01;2.63;;;1.40;;
26540;SDS011;14206;50.202;10.948;2023-12-20T13:47:28;4.63;;;1.90;;
26540;SDS011;14206;50.202;10.948;2023-12-20T13:49:55;3.75;;;1.67;;
26540;SDS011;14206;50.202;10.948;2023-12-20T13:52:22;5.57;;;1.80;;
26540;SDS011;14206;50.202;10.948;2023-12-20T13:54:49;6.60;;;2.05;;
26540;SDS011;14206;50.202;10.948;2023-12-20T13:57:16;2.78;;;1.58;;
26540;SDS011;14206;50.202;10.948;2023-12-20T14:00:04;6.32;;;2.10;;
26540;SDS011;14206;50.202;10.948;2023-12-20T14:02:32;4.05;;;1.85;;
26540;SDS011;14206;50.202;10.948;2023-12-20T14:04:59;7.40;;;2.08;;
26540;SDS011;14206;50.202;10.948;2023-12-20T14:07:26;6.65;;;2.15;;
26540;SDS011;14206;50.202;10.948;2023-12-20T14:09:55;4.90;;;1.95;;
26540;SDS011;14206;50.202;10.948;2023-12-20T14:12:22;5.95;;;2.13;;
26540;SDS011;14206;50.202;10.948;2023-12-20T14:14:50;6.35;;;1.95;;
26540;SDS011;14206;50.202;10.948;2023-12-20T14:17:17;6.45;;;2.38;;
26540;SDS011;14206;50.202;10.948;2023-12-20T14:19:44;7.53;;;2.40;;
26540;SDS011;14206;50.202;10.948;2023-12-20T14:22:11;4.80;;;2.00;;
26540;SDS011;14206;50.202;10.948;2023-12-20T14:24:38;6.07;;;1.90;;
26540;SDS011;14206;50.202;10.948;2023-12-20T14:27:05;4.80;;;2.15;;
26540;SDS011;14206;50.202;10.948;2023-12-20T14:29:32;4.88;;;2.10;;
26540;SDS011;14206;50.202;10.948;2023-12-20T14:37:50;3.25;;;1.98;;
26540;SDS011;14206;50.202;10.948;2023-12-20T14:40:17;4.13;;;1.75;;
26540;SDS011;14206;50.202;10.948;2023-12-20T14:42:45;3.53;;;1.83;;
26540;SDS011;14206;50.202;10.948;2023-12-20T14:45:12;5.18;;;1.73;;
26540;SDS011;14206;50.202;10.948;2023-12-20T14:47:40;4.40;;;1.65;;
26540;SDS011;14206;50.202;10.948;2023-12-20T14:50:07;5.57;;;1.90;;
26540;SDS011;14206;50.202;10.948;2023-12-20T14:52:34;6.82;;;2.05;;
26540;SDS011;14206;50.202;10.948;2023-12-20T14:55:02;3.38;;;1.60;;